Time;durP1;ratioP1;P1;durP2;ratioP2;P2;SDS_P1;SDS_P2;PMS_P1;PMS_P2;Temp;Humidity;BMP_temperature;BMP_pressure;BME280_temperature;BME280_humidity;BME280_pressure;Samples;Min_cycle;Max_cycle;Signal;HPM_P1;HPM_P2
2021/12/24 00:00:09;;;;;;;19.80;7.68;;;-4.90;99.90;;;;;;4141515;28;20095;-58
2021/12/24 00:02:11;;;;;;;15.15;6.97;;;-4.90;99.90;;;;;;4140126;28;20093;-56
2021/12/24 00:04:13;;;;;;;25.58;8.80;;;-4.90;99.90;;;;;;4141057;28;20030;-56
2021/12/24 00:06:14;;;;;;;19.02;8.60;;;-4.90;99.90;;;;;;4142278;28;20080;-59
2021/12/24 00:08:15;;;;;;;15.80;7.55;;;-4.90;99.90;;;;;;4143927;28;20096;-58
2021/12/24 00:10:16;;;;;;;19.13;7.68;;;-4.90;99.90;;;;;;4142719;28;20041;-65
2021/12/24 00:12:20;;;;;;;17.52;8.00;;;-4.90;99.90;;;;;;4143613;28;20498;-61
2021/12/24 00:14:23;;;;;;;17.20;7.32;;;-5.00;99.90;;;;;;4144218;28;20422;-54
2021/12/24 00:16:31;;;;;;;16.77;7.22;;;-4.90;99.90;;;;;;4142988;28;20033;-57
2021/12/24 00:18:42;;;;;;;14.38;8.18;;;-4.90;99.90;;;;;;4144028;28;20030;-59
2021/12/24 00:36:49;;;;;;;19.83;7.30;;;-5.00;99.90;;;;;;4143178;28;20119;-58
2021/12/24 00:38:51;;;;;;;19.42;7.88;;;-4.90;99.90;;;;;;4143697;28;20030;-56
2021/12/24 00:40:53;;;;;;;18.63;7.63;;;-4.90;99.90;;;;;;4142814;28;20057;-54
2021/12/24 00:42:56;;;;;;;17.48;7.53;;;-4.90;99.90;;;;;;4143609;28;20038;-60
2021/12/24 00:44:57;;;;;;;16.73;7.05;;;-4.90;99.90;;;;;;4142722;28;20042;-53
2021/12/24 00:46:58;;;;;;;14.98;7.30;;;-4.90;99.90;;;;;;4143293;28;20088;-57
2021/12/24 00:49:01;;;;;;;19.20;7.75;;;-4.90;99.90;;;;;;4143460;28;20030;-64
2021/12/24 00:55:02;;;;;;;20.55;7.75;;;-4.80;99.90;;;;;;4143764;28;20103;-64
2021/12/24 00:55:27;;;;;;;17.33;7.10;;;-4.80;99.90;;;;;;4142292;28;20124;-62
2021/12/24 00:57:28;;;;;;;18.23;7.28;;;-4.80;99.90;;;;;;4143698;28;20034;-72
2021/12/24 00:59:29;;;;;;;14.90;7.10;;;-4.80;99.90;;;;;;4142156;28;20076;-53
2021/12/24 01:01:30;;;;;;;17.63;7.00;;;-4.80;99.90;;;;;;4143490;28;20533;-56
2021/12/24 01:03:33;;;;;;;16.17;7.13;;;-4.80;99.90;;;;;;4142124;28;20092;-56
2021/12/24 01:05:35;;;;;;;16.33;7.00;;;-4.80;99.90;;;;;;4143679;28;20068;-60
2021/12/24 01:07:37;;;;;;;15.35;6.72;;;-4.80;99.90;;;;;;4142571;28;20463;-57
2021/12/24 01:09:38;;;;;;;17.83;7.72;;;-4.80;99.90;;;;;;4143493;28;20865;-57
2021/12/24 01:11:39;;;;;;;16.75;7.30;;;-4.80;99.90;;;;;;4142576;28;20033;-58
2021/12/24 01:13:41;;;;;;;21.27;8.00;;;-4.80;99.90;;;;;;4143958;28;20038;-56
2021/12/24 01:16:04;;;;;;;19.42;8.00;;;-4.80;99.90;;;;;;4142160;28;20092;-58
2021/12/24 01:18:14;;;;;;;15.75;6.65;;;-4.80;99.90;;;;;;4143535;28;20495;-57
2021/12/24 01:20:31;;;;;;;20.30;7.68;;;-4.80;99.90;;;;;;4142359;28;20482;-59
2021/12/24 01:24:58;;;;;;;19.45;7.70;;;-4.80;99.90;;;;;;4142263;28;20104;-58
2021/12/24 01:29:56;;;;;;;15.25;5.72;;;-4.70;99.90;;;;;;4118851;28;20038;-55
2021/12/24 01:41:19;;;;;;;17.58;7.15;;;-4.80;99.90;;;;;;4142050;28;20076;-58
2021/12/24 01:43:23;;;;;;;17.63;7.72;;;-4.80;99.90;;;;;;4142943;28;20088;-56
2021/12/24 01:45:35;;;;;;;13.63;6.53;;;-4.80;99.90;;;;;;4142101;28;20863;-59
2021/12/24 01:47:36;;;;;;;17.02;6.80;;;-4.80;99.90;;;;;;4141832;28;20525;-58
2021/12/24 01:49:38;;;;;;;18.17;7.00;;;-4.80;99.90;;;;;;4142651;28;20092;-56
2021/12/24 01:51:39;;;;;;;17.25;7.45;;;-4.80;99.90;;;;;;4142288;28;20034;-52
2021/12/24 01:53:40;;;;;;;16.95;7.93;;;-4.80;99.90;;;;;;4142873;28;20042;-59
2021/12/24 01:55:43;;;;;;;15.35;7.72;;;-4.80;99.90;;;;;;4141209;28;20034;-59
2021/12/24 01:57:44;;;;;;;22.45;9.00;;;-4.80;99.90;;;;;;4141758;28;20018;-57
2021/12/24 01:59:45;;;;;;;14.23;6.53;;;-4.80;99.90;;;;;;4141710;28;20092;-55
2021/12/24 02:01:47;;;;;;;18.13;8.30;;;-4.80;99.90;;;;;;4142753;28;20053;-53
2021/12/24 02:03:48;;;;;;;16.25;7.03;;;-4.80;99.90;;;;;;4141561;28;20092;-51
2021/12/24 02:05:49;;;;;;;18.63;6.97;;;-4.80;99.90;;;;;;4143327;28;20042;-55
2021/12/24 02:07:51;;;;;;;18.15;7.30;;;-4.80;99.90;;;;;;4141175;28;20102;-58
2021/12/24 02:09:55;;;;;;;16.15;7.10;;;-4.80;99.90;;;;;;4142873;28;20072;-57
2021/12/24 02:11:57;;;;;;;19.85;7.18;;;-4.80;99.90;;;;;;4141333;28;20112;-53
2021/12/24 02:14:02;;;;;;;14.23;7.25;;;-4.80;99.90;;;;;;4142530;28;20034;-57
2021/12/24 02:16:14;;;;;;;12.88;6.13;;;-4.80;99.90;;;;;;4141292;28;20026;-65
2021/12/24 02:29:45;;;;;;;12.43;5.88;;;-4.70;99.90;;;;;;4140635;28;20614;-54
2021/12/24 02:31:46;;;;;;;17.33;7.22;;;-4.70;99.90;;;;;;4141137;28;20030;-65
2021/12/24 02:33:48;;;;;;;14.32;7.03;;;-4.70;99.90;;;;;;4141326;28;20030;-54
2021/12/24 02:35:49;;;;;;;16.95;7.07;;;-4.70;99.90;;;;;;4142472;28;20100;-59
2021/12/24 02:37:50;;;;;;;17.80;7.10;;;-4.70;99.90;;;;;;4140706;28;20544;-58
2021/12/24 02:39:52;;;;;;;16.63;7.00;;;-4.70;99.90;;;;;;4142064;28;20029;-60
2021/12/24 02:41:53;;;;;;;19.52;7.80;;;-4.70;99.90;;;;;;4141198;28;20453;-58
2021/12/24 02:43:54;;;;;;;16.80;7.53;;;-4.70;99.90;;;;;;4141780;28;20558;-56
2021/12/24 02:45:59;;;;;;;17.05;7.45;;;-4.70;99.90;;;;;;4141542;28;20124;-71
2021/12/24 02:54:26;;;;;;;17.77;7.88;;;-4.80;99.90;;;;;;4141590;28;20088;-62
2021/12/24 02:56:31;;;;;;;15.02;6.78;;;-4.80;99.90;;;;;;4140695;28;20120;-56
2021/12/24 02:58:44;;;;;;;15.23;6.50;;;-4.80;99.90;;;;;;4142163;28;20055;-56
2021/12/24 03:00:46;;;;;;;15.60;7.07;;;-4.80;99.90;;;;;;4140599;28;20053;-61
2021/12/24 03:02:48;;;;;;;16.73;7.57;;;-4.80;99.90;;;;;;4141836;28;20041;-59
2021/12/24 03:04:49;;;;;;;17.08;7.40;;;-4.80;99.90;;;;;;4140440;28;20056;-61
2021/12/24 03:06:52;;;;;;;16.02;7.13;;;-4.90;99.90;;;;;;4142021;28;20441;-55
2021/12/24 03:08:55;;;;;;;17.27;7.80;;;-4.90;99.90;;;;;;4140821;28;20041;-58
2021/12/24 03:10:58;;;;;;;16.73;7.45;;;-4.90;99.90;;;;;;4141996;28;20875;-56
2021/12/24 03:12:59;;;;;;;15.52;7.60;;;-5.00;99.90;;;;;;4140638;28;20072;-63
2021/12/24 03:15:00;;;;;;;19.42;8.30;;;-5.00;99.90;;;;;;4141649;28;20034;-59
2021/12/24 03:17:07;;;;;;;18.73;8.45;;;-5.10;99.90;;;;;;4140574;28;20104;-58
2021/12/24 03:19:09;;;;;;;17.13;7.65;;;-5.10;99.90;;;;;;4141534;28;20060;-53
2021/12/24 03:23:35;;;;;;;15.18;7.70;;;-5.20;99.90;;;;;;4142085;28;20091;-63
2021/12/24 03:25:37;;;;;;;19.80;7.72;;;-5.20;99.90;;;;;;4140287;28;20034;-56
2021/12/24 03:27:39;;;;;;;17.98;7.55;;;-5.30;99.90;;;;;;4141470;28;20026;-63
2021/12/24 03:29:40;;;;;;;17.60;8.05;;;-5.30;99.90;;;;;;4140025;28;20084;-58
2021/12/24 03:31:42;;;;;;;23.77;8.77;;;-5.30;99.90;;;;;;4140910;28;20061;-56
2021/12/24 03:33:43;;;;;;;17.92;8.82;;;-5.40;99.90;;;;;;4140410;28;20026;-58
2021/12/24 03:35:44;;;;;;;19.23;8.73;;;-5.40;99.90;;;;;;4140898;28;20030;-57
2021/12/24 03:37:45;;;;;;;21.77;8.07;;;-5.40;99.90;;;;;;4140834;28;20500;-55
2021/12/24 03:39:46;;;;;;;19.75;9.93;;;-5.50;99.90;;;;;;4140354;28;20088;-60
2021/12/24 03:41:48;;;;;;;21.52;8.70;;;-5.50;99.90;;;;;;4141277;28;20198;-54
2021/12/24 03:43:49;;;;;;;22.23;8.55;;;-5.50;99.90;;;;;;4140417;28;20544;-57
2021/12/24 03:47:58;;;;;;;15.57;7.35;;;-5.60;99.90;;;;;;4140309;28;20037;-62
2021/12/24 03:50:06;;;;;;;21.20;9.18;;;-5.60;99.90;;;;;;4141342;28;20042;-62
2021/12/24 03:56:38;;;;;;;18.77;9.02;;;-5.60;99.90;;;;;;4139610;28;20120;-56
2021/12/24 03:58:39;;;;;;;21.67;9.27;;;-5.60;99.90;;;;;;4141272;28;20029;-54
2021/12/24 04:00:40;;;;;;;13.25;7.18;;;-5.60;99.90;;;;;;4139784;28;20104;-65
2021/12/24 04:02:42;;;;;;;17.90;9.13;;;-5.60;99.90;;;;;;4141389;28;20034;-56
2021/12/24 04:04:43;;;;;;;22.15;10.98;;;-5.70;99.90;;;;;;4139617;28;20088;-53
2021/12/24 04:06:45;;;;;;;20.52;8.63;;;-5.70;99.90;;;;;;4140960;28;20037;-58
2021/12/24 04:08:46;;;;;;;20.05;9.27;;;-5.70;99.90;;;;;;4139771;28;20076;-66
2021/12/24 04:10:49;;;;;;;20.17;9.52;;;-5.70;99.90;;;;;;4140886;28;20038;-58
2021/12/24 04:12:51;;;;;;;22.77;8.45;;;-5.80;99.90;;;;;;4139789;28;20049;-56
2021/12/24 04:14:53;;;;;;;19.98;10.07;;;-5.80;99.90;;;;;;4140910;28;20788;-65
2021/12/24 04:16:54;;;;;;;19.60;9.07;;;-5.80;99.90;;;;;;4139929;28;20417;-61
2021/12/24 04:19:26;;;;;;;18.88;8.30;;;-5.80;99.90;;;;;;4140497;28;20079;-54
2021/12/24 04:25:56;;;;;;;22.45;10.57;;;-5.80;99.90;;;;;;4139680;28;20532;-58
2021/12/24 04:27:59;;;;;;;23.90;10.25;;;-5.90;99.90;;;;;;4140936;28;20085;-58
2021/12/24 04:30:13;;;;;;;18.60;8.52;;;-5.90;99.90;;;;;;4139871;28;20088;-56
2021/12/24 04:32:22;;;;;;;22.45;9.82;;;-5.90;99.90;;;;;;4140702;28;20091;-56
2021/12/24 04:34:27;;;;;;;20.63;8.23;;;-5.90;99.90;;;;;;4139860;28;20026;-61
2021/12/24 05:02:54;;;;;;;21.17;8.77;;;-5.90;99.90;;;;;;4140909;28;20068;-64
2021/12/24 05:05:03;;;;;;;21.15;8.65;;;-5.90;99.90;;;;;;4140338;28;20034;-63
2021/12/24 05:07:38;;;;;;;21.58;9.43;;;-5.80;99.90;;;;;;4143387;28;20529;-66
2021/12/24 05:09:38;;;;;;;19.80;8.45;;;-5.80;99.90;;;;;;4141992;28;20034;-54
2021/12/24 05:11:39;;;;;;;19.42;9.32;;;-5.90;99.90;;;;;;4143512;28;20037;-58
2021/12/24 05:13:41;;;;;;;22.13;9.57;;;-5.90;99.90;;;;;;4142321;28;20490;-56
2021/12/24 05:15:44;;;;;;;23.45;10.52;;;-5.90;99.90;;;;;;4143673;28;20157;-59
2021/12/24 05:22:20;;;;;;;21.55;9.10;;;-5.90;99.90;;;;;;4142156;28;20112;-57
2021/12/24 05:24:24;;;;;;;23.90;10.02;;;-5.90;99.90;;;;;;4142091;28;20038;-57
2021/12/24 05:26:25;;;;;;;26.70;10.27;;;-5.90;99.90;;;;;;4141992;28;20026;-59
2021/12/24 05:28:26;;;;;;;18.90;8.75;;;-5.90;99.90;;;;;;4142357;28;20774;-64
2021/12/24 05:30:27;;;;;;;22.08;10.65;;;-5.90;99.90;;;;;;4141994;28;20029;-57
2021/12/24 05:32:28;;;;;;;20.20;10.52;;;-5.90;99.90;;;;;;4141418;28;20029;-56
2021/12/24 05:34:30;;;;;;;21.63;9.95;;;-5.80;99.90;;;;;;4142333;28;20021;-64
2021/12/24 05:36:31;;;;;;;21.35;10.25;;;-5.90;99.90;;;;;;4141736;28;20030;-56
2021/12/24 05:38:32;;;;;;;22.00;8.52;;;-5.80;99.90;;;;;;4142666;28;20046;-54
2021/12/24 05:40:33;;;;;;;24.08;10.20;;;-5.90;99.90;;;;;;4139534;28;20055;-60
2021/12/24 05:42:35;;;;;;;24.45;10.25;;;-5.90;99.90;;;;;;4142473;28;20046;-59
2021/12/24 05:44:36;;;;;;;20.75;10.35;;;-5.90;99.90;;;;;;4141658;28;20034;-62
2021/12/24 05:46:37;;;;;;;23.52;10.68;;;-5.90;99.90;;;;;;4143077;28;20041;-60
2021/12/24 05:48:38;;;;;;;27.95;10.73;;;-5.90;99.90;;;;;;4141418;28;20084;-60
2021/12/24 05:50:39;;;;;;;22.08;10.48;;;-5.80;99.90;;;;;;4142826;28;20119;-52
2021/12/24 05:52:41;;;;;;;20.40;10.07;;;-5.80;99.90;;;;;;4141522;28;20041;-55
2021/12/24 05:54:42;;;;;;;25.77;11.30;;;-5.80;99.90;;;;;;4142364;28;20030;-61
2021/12/24 05:56:44;;;;;;;30.13;12.27;;;-5.80;99.90;;;;;;4140946;28;20890;-57
2021/12/24 05:58:45;;;;;;;30.23;13.25;;;-5.80;99.90;;;;;;4141581;28;20022;-56
2021/12/24 06:00:48;;;;;;;24.70;11.48;;;-5.70;99.90;;;;;;4141159;28;20112;-57
2021/12/24 06:02:49;;;;;;;24.42;10.63;;;-5.70;99.90;;;;;;4140385;28;20438;-54
2021/12/24 06:04:50;;;;;;;28.20;11.05;;;-5.70;99.90;;;;;;4141458;28;20088;-60
2021/12/24 06:06:51;;;;;;;28.30;11.57;;;-5.70;99.90;;;;;;4141285;28;20034;-65
2021/12/24 06:08:52;;;;;;;27.77;11.18;;;-5.70;99.90;;;;;;4142018;28;20045;-56
2021/12/24 06:10:55;;;;;;;25.45;12.05;;;-5.70;99.90;;;;;;4141026;28;20045;-67
2021/12/24 06:12:57;;;;;;;23.40;10.35;;;-5.60;99.90;;;;;;4142089;28;20030;-57
2021/12/24 06:15:03;;;;;;;28.60;9.85;;;-5.60;99.90;;;;;;4141410;28;20034;-64
2021/12/24 06:17:10;;;;;;;21.00;10.55;;;-5.60;99.90;;;;;;4142017;28;20041;-56
2021/12/24 06:19:11;;;;;;;29.65;11.38;;;-5.60;99.90;;;;;;4141098;28;21194;-57
2021/12/24 06:21:13;;;;;;;22.83;10.32;;;-5.60;99.90;;;;;;4142524;28;20107;-60
2021/12/24 06:23:14;;;;;;;24.92;10.68;;;-5.60;99.90;;;;;;4140840;28;20088;-54
2021/12/24 06:25:17;;;;;;;24.58;11.82;;;-5.50;99.90;;;;;;4142199;28;20029;-58
2021/12/24 06:27:18;;;;;;;29.75;11.48;;;-5.50;99.90;;;;;;4140583;28;20029;-60
2021/12/24 06:29:20;;;;;;;25.98;10.77;;;-5.50;99.90;;;;;;4141924;28;20022;-54
2021/12/24 06:31:22;;;;;;;23.70;10.75;;;-5.50;99.90;;;;;;4140560;28;20450;-51
2021/12/24 06:33:23;;;;;;;24.63;11.15;;;-5.50;99.90;;;;;;4141597;28;20453;-59
2021/12/24 06:35:25;;;;;;;25.27;10.73;;;-5.40;99.90;;;;;;4140941;28;20018;-55
2021/12/24 06:37:26;;;;;;;21.73;10.20;;;-5.40;99.90;;;;;;4140864;28;20045;-63
2021/12/24 06:39:28;;;;;;;24.52;10.05;;;-5.40;99.90;;;;;;4140792;28;20038;-60
2021/12/24 06:41:29;;;;;;;27.30;11.18;;;-5.40;99.90;;;;;;4141106;28;20108;-59
2021/12/24 06:43:30;;;;;;;25.13;10.73;;;-5.40;99.90;;;;;;4141907;28;20108;-57
2021/12/24 06:45:33;;;;;;;25.83;11.45;;;-5.40;99.90;;;;;;4140409;28;20560;-63
2021/12/24 06:47:34;;;;;;;19.83;10.30;;;-5.40;99.90;;;;;;4141599;28;20080;-51
2021/12/24 06:49:36;;;;;;;25.55;10.57;;;-5.40;99.90;;;;;;4140319;28;20148;-59
2021/12/24 06:51:38;;;;;;;27.90;11.93;;;-5.40;99.90;;;;;;4141267;28;20033;-65
2021/12/24 06:53:39;;;;;;;27.30;12.85;;;-5.40;99.90;;;;;;4139763;28;20045;-64
2021/12/24 06:55:40;;;;;;;27.48;11.48;;;-5.40;99.90;;;;;;4140959;28;20021;-60
2021/12/24 06:57:42;;;;;;;26.33;12.15;;;-5.50;99.90;;;;;;4140032;28;20549;-61
2021/12/24 06:59:44;;;;;;;20.55;11.75;;;-5.40;99.90;;;;;;4141101;28;20034;-61
2021/12/24 07:01:45;;;;;;;25.67;12.05;;;-5.40;99.90;;;;;;4140214;28;20053;-59
2021/12/24 07:03:46;;;;;;;27.83;11.98;;;-5.20;99.90;;;;;;4141424;28;20029;-62
2021/12/24 07:05:47;;;;;;;34.72;13.90;;;-5.20;99.90;;;;;;4140803;28;20034;-56
2021/12/24 07:07:48;;;;;;;21.45;10.48;;;-5.20;99.90;;;;;;4140863;28;20046;-60
2021/12/24 07:09:50;;;;;;;25.20;11.88;;;-5.10;99.90;;;;;;4141031;28;20753;-55
2021/12/24 07:11:51;;;;;;;22.48;10.45;;;-5.20;99.90;;;;;;4140432;28;20069;-60
2021/12/24 07:13:52;;;;;;;23.88;11.23;;;-5.20;99.90;;;;;;4140202;28;20100;-59
2021/12/24 07:15:54;;;;;;;23.27;10.55;;;-5.20;99.90;;;;;;4140535;28;20467;-57
2021/12/24 07:17:55;;;;;;;24.52;11.05;;;-5.30;99.90;;;;;;4141477;28;20041;-58
2021/12/24 07:19:56;;;;;;;23.88;10.63;;;-5.20;99.90;;;;;;4139921;28;20030;-63
2021/12/24 07:21:57;;;;;;;26.35;11.02;;;-5.20;99.90;;;;;;4141483;28;20835;-60
2021/12/24 07:23:58;;;;;;;24.63;11.63;;;-5.30;99.90;;;;;;4140123;28;20037;-60
2021/12/24 07:26:00;;;;;;;25.70;10.88;;;-5.20;99.90;;;;;;4141354;28;20046;-61
2021/12/24 07:28:01;;;;;;;27.83;12.48;;;-5.20;99.90;;;;;;4139921;28;20038;-51
2021/12/24 07:30:10;;;;;;;29.33;12.13;;;-5.10;99.90;;;;;;4140942;28;20103;-57
2021/12/24 07:32:11;;;;;;;28.58;13.55;;;-5.10;99.90;;;;;;4138450;28;20604;-56
2021/12/24 07:34:14;;;;;;;25.23;11.75;;;-5.10;99.90;;;;;;4141003;28;20038;-56
2021/12/24 07:36:15;;;;;;;29.15;12.45;;;-5.00;99.90;;;;;;4139396;28;20105;-56
2021/12/24 07:38:16;;;;;;;24.20;11.48;;;-5.00;99.90;;;;;;4140565;28;20441;-58
2021/12/24 07:40:18;;;;;;;27.85;12.20;;;-5.00;99.90;;;;;;4139633;28;20105;-57
2021/12/24 07:42:19;;;;;;;25.80;12.15;;;-5.00;99.90;;;;;;4137719;28;20050;-55
2021/12/24 07:44:20;;;;;;;26.48;12.60;;;-5.00;99.90;;;;;;4140933;28;20427;-61
2021/12/24 07:46:23;;;;;;;27.00;12.82;;;-4.90;99.90;;;;;;4139555;28;20084;-65
2021/12/24 07:48:29;;;;;;;21.48;11.52;;;-4.90;99.90;;;;;;4140729;28;20452;-61
2021/12/24 07:52:32;;;;;;;26.95;12.77;;;-4.90;99.90;;;;;;4140934;28;20065;-59
2021/12/24 07:54:34;;;;;;;27.50;12.48;;;-4.80;99.90;;;;;;4139273;28;20096;-58
2021/12/24 07:56:35;;;;;;;33.63;13.18;;;-4.70;99.90;;;;;;4140748;28;20022;-61
2021/12/24 07:58:36;;;;;;;24.23;12.20;;;-4.70;99.90;;;;;;4138974;28;20096;-58
2021/12/24 08:00:39;;;;;;;31.75;13.35;;;-4.70;99.90;;;;;;4140880;28;20038;-60
2021/12/24 08:02:41;;;;;;;31.95;13.40;;;-4.60;99.90;;;;;;4139896;28;20628;-61
2021/12/24 08:04:44;;;;;;;25.95;11.30;;;-4.50;99.90;;;;;;4140540;28;20437;-60
2021/12/24 08:06:46;;;;;;;31.52;14.18;;;-4.40;99.90;;;;;;4139630;28;20108;-57
2021/12/24 08:08:47;;;;;;;32.53;12.85;;;-4.50;99.90;;;;;;4140326;28;20034;-58
2021/12/24 08:10:48;;;;;;;25.55;11.75;;;-4.60;99.90;;;;;;4138945;28;20367;-57
2021/12/24 08:12:50;;;;;;;24.30;12.35;;;-4.60;99.90;;;;;;4140120;28;20516;-58
2021/12/24 08:14:51;;;;;;;29.48;12.27;;;-4.60;99.90;;;;;;4139696;28;20116;-59
2021/12/24 08:16:52;;;;;;;30.27;12.73;;;-4.60;99.90;;;;;;4139819;28;20438;-60
2021/12/24 08:18:53;;;;;;;35.83;15.27;;;-4.60;99.90;;;;;;4139714;28;20042;-57
2021/12/24 08:20:54;;;;;;;29.73;13.00;;;-4.60;99.90;;;;;;4139581;28;20073;-61
2021/12/24 08:22:56;;;;;;;25.48;11.75;;;-4.50;99.90;;;;;;4140645;28;20080;-56
2021/12/24 08:24:57;;;;;;;24.80;12.00;;;-4.50;99.90;;;;;;4139841;28;20481;-59
2021/12/24 08:26:59;;;;;;;25.83;12.68;;;-4.40;99.90;;;;;;4142508;28;20430;-59
2021/12/24 08:29:00;;;;;;;29.90;12.32;;;-4.40;99.90;;;;;;4142695;28;20065;-61
2021/12/24 08:31:02;;;;;;;27.15;12.82;;;-4.30;99.90;;;;;;4144384;28;20045;-54
2021/12/24 08:33:04;;;;;;;29.63;12.88;;;-4.30;99.90;;;;;;4142672;28;20034;-61
2021/12/24 08:35:08;;;;;;;29.85;13.77;;;-4.30;99.90;;;;;;4143537;28;20542;-61
2021/12/24 08:37:10;;;;;;;29.80;13.88;;;-4.30;99.90;;;;;;4142424;28;20022;-60
2021/12/24 08:39:11;;;;;;;31.92;15.93;;;-4.30;99.90;;;;;;4142315;28;20128;-65
2021/12/24 08:41:12;;;;;;;29.33;13.20;;;-4.20;99.90;;;;;;4142132;28;20076;-58
2021/12/24 08:43:14;;;;;;;29.40;14.68;;;-4.20;99.90;;;;;;4142943;28;20100;-55
2021/12/24 08:45:15;;;;;;;26.83;12.82;;;-4.10;99.90;;;;;;4141151;28;20096;-58
2021/12/24 08:47:16;;;;;;;24.98;13.57;;;-4.10;99.90;;;;;;4142861;28;20034;-60
2021/12/24 08:49:18;;;;;;;26.27;13.45;;;-4.10;99.90;;;;;;4143030;28;20046;-64
2021/12/24 08:51:19;;;;;;;29.52;13.43;;;-4.10;99.90;;;;;;4142289;28;20386;-54
2021/12/24 08:53:23;;;;;;;34.28;14.50;;;-4.00;99.90;;;;;;4142975;28;20367;-60
2021/12/24 08:55:24;;;;;;;30.90;15.00;;;-4.00;99.90;;;;;;4142072;28;20095;-61
2021/12/24 08:57:25;;;;;;;28.42;14.65;;;-3.90;99.90;;;;;;4142919;28;20766;-55
2021/12/24 08:59:26;;;;;;;31.23;14.88;;;-3.90;99.90;;;;;;4142327;28;20104;-59
2021/12/24 09:01:27;;;;;;;28.15;13.55;;;-3.80;99.90;;;;;;4143091;28;20050;-57
2021/12/24 09:03:29;;;;;;;24.83;13.75;;;-3.80;99.90;;;;;;4141962;28;20064;-56
2021/12/24 09:05:30;;;;;;;29.13;13.70;;;-3.80;99.90;;;;;;4143156;28;20092;-56
2021/12/24 09:07:32;;;;;;;30.02;13.02;;;-3.90;99.90;;;;;;4141968;28;20026;-56
2021/12/24 09:09:33;;;;;;;32.55;14.40;;;-3.90;99.90;;;;;;4143540;28;20588;-69
2021/12/24 09:11:35;;;;;;;29.90;13.27;;;-3.90;99.90;;;;;;4141820;28;20441;-62
2021/12/24 09:13:36;;;;;;;34.55;14.63;;;-3.90;99.90;;;;;;4142258;28;20104;-56
2021/12/24 09:15:40;;;;;;;30.00;14.55;;;-3.80;99.90;;;;;;4142331;28;20088;-57
2021/12/24 09:17:45;;;;;;;34.53;15.75;;;-3.70;99.90;;;;;;4142427;28;20022;-55
2021/12/24 09:19:49;;;;;;;32.25;14.10;;;-3.70;99.90;;;;;;4142118;28;20053;-59
2021/12/24 09:21:51;;;;;;;26.83;13.07;;;-3.60;99.90;;;;;;4142029;28;20045;-58
2021/12/24 09:23:54;;;;;;;24.98;12.38;;;-3.60;99.90;;;;;;4142035;28;20038;-60
2021/12/24 09:25:55;;;;;;;27.48;13.25;;;-3.70;99.90;;;;;;4141589;28;20029;-52
2021/12/24 09:27:58;;;;;;;27.65;13.68;;;-3.60;99.90;;;;;;4143611;28;20446;-61
2021/12/24 09:29:59;;;;;;;27.55;13.90;;;-3.60;99.90;;;;;;4141176;28;20093;-63
2021/12/24 09:32:00;;;;;;;30.63;15.52;;;-3.60;99.90;;;;;;4142572;28;20030;-61
2021/12/24 09:34:01;;;;;;;27.00;14.80;;;-3.60;99.90;;;;;;4139583;28;20097;-62
2021/12/24 09:36:03;;;;;;;24.83;13.13;;;-3.60;99.90;;;;;;4142883;28;20041;-59
2021/12/24 09:38:05;;;;;;;25.85;13.23;;;-3.60;99.90;;;;;;4140896;28;20099;-57
2021/12/24 09:40:08;;;;;;;28.90;13.98;;;-3.60;99.90;;;;;;4142563;28;20026;-57
2021/12/24 09:42:10;;;;;;;29.58;13.35;;;-3.60;99.90;;;;;;4141013;28;20038;-60
2021/12/24 09:44:11;;;;;;;24.38;13.48;;;-3.50;99.90;;;;;;4142482;28;20037;-58
2021/12/24 09:46:12;;;;;;;27.75;13.55;;;-3.50;99.90;;;;;;4141146;28;20030;-60
2021/12/24 09:48:14;;;;;;;29.92;15.48;;;-3.40;99.90;;;;;;4142492;28;20038;-60
2021/12/24 09:50:21;;;;;;;29.25;14.70;;;-3.40;99.90;;;;;;4140903;28;20064;-62
2021/12/24 09:52:22;;;;;;;32.33;16.05;;;-3.30;99.90;;;;;;4141736;28;20470;-57
2021/12/24 09:54:25;;;;;;;36.70;14.00;;;-3.30;99.90;;;;;;4141409;28;20041;-59
2021/12/24 09:56:26;;;;;;;40.20;16.80;;;-3.30;99.90;;;;;;4138585;28;20057;-60
2021/12/24 09:58:28;;;;;;;33.55;14.10;;;-3.40;99.90;;;;;;4125719;28;20626;-60
2021/12/24 10:00:29;;;;;;;35.80;15.60;;;-3.40;99.90;;;;;;4124491;28;20050;-56
2021/12/24 10:02:43;;;;;;;30.38;14.32;;;-3.30;99.90;;;;;;4124774;28;20089;-73
2021/12/24 10:04:46;;;;;;;40.20;16.63;;;-3.30;99.90;;;;;;4124966;28;20096;-60
2021/12/24 10:06:53;;;;;;;31.45;15.88;;;-3.20;99.90;;;;;;4126346;28;20076;-59
2021/12/24 10:09:08;;;;;;;33.55;15.98;;;-3.10;99.90;;;;;;4125094;28;20026;-58
2021/12/24 10:11:10;;;;;;;43.55;18.48;;;-3.00;99.90;;;;;;4125672;28;20459;-58
2021/12/24 10:13:46;;;;;;;43.97;18.30;;;-3.00;99.90;;;;;;4124673;28;20034;-58
2021/12/24 10:15:55;;;;;;;40.55;18.95;;;-2.90;99.90;;;;;;4125384;28;20051;-52
2021/12/24 10:17:56;;;;;;;35.35;16.58;;;-2.80;99.90;;;;;;4124863;28;20092;-59
2021/12/24 10:20:01;;;;;;;44.25;17.77;;;-2.80;99.90;;;;;;4125597;28;20455;-64
2021/12/24 10:22:04;;;;;;;41.85;18.00;;;-2.70;99.90;;;;;;4123911;28;20132;-58
2021/12/24 10:24:08;;;;;;;37.90;17.80;;;-2.60;99.90;;;;;;4125920;28;20034;-55
2021/12/24 10:26:34;;;;;;;41.83;19.65;;;-2.60;99.90;;;;;;4124684;28;20704;-58
2021/12/24 10:28:35;;;;;;;34.53;16.40;;;-2.60;99.90;;;;;;4124479;28;20124;-59
2021/12/24 10:30:36;;;;;;;40.67;17.20;;;-2.60;99.90;;;;;;4123852;28;20665;-59
2021/12/24 10:32:39;;;;;;;36.43;18.07;;;-2.60;99.90;;;;;;4125548;28;20676;-56
2021/12/24 10:34:42;;;;;;;34.73;17.50;;;-2.60;99.90;;;;;;4124356;28;20338;-58
2021/12/24 10:36:52;;;;;;;36.03;18.23;;;-2.50;99.90;;;;;;4126095;28;20276;-58
2021/12/24 10:38:56;;;;;;;38.75;19.17;;;-2.60;99.90;;;;;;4124289;28;20338;-59
2021/12/24 10:41:06;;;;;;;53.30;22.40;;;-2.50;99.90;;;;;;4125426;28;20038;-59
2021/12/24 10:43:07;;;;;;;38.20;17.83;;;-2.50;99.90;;;;;;4124410;28;20268;-59
2021/12/24 10:45:22;;;;;;;34.43;16.90;;;-2.50;99.90;;;;;;4125317;28;20112;-60
2021/12/24 10:47:28;;;;;;;39.63;18.52;;;-2.50;99.90;;;;;;4124318;28;20326;-59
2021/12/24 10:52:11;;;;;;;38.03;18.00;;;-2.50;99.90;;;;;;4123919;28;20725;-61
2021/12/24 10:54:12;;;;;;;35.23;16.70;;;-2.40;99.90;;;;;;4125614;28;20533;-58
2021/12/24 10:56:24;;;;;;;35.17;16.37;;;-2.40;99.90;;;;;;4124375;28;20327;-59
2021/12/24 10:58:28;;;;;;;32.57;15.53;;;-2.40;99.90;;;;;;4125318;28;20284;-62
2021/12/24 11:00:39;;;;;;;32.33;16.03;;;-2.30;99.90;;;;;;4122930;28;20284;-61
2021/12/24 11:02:40;;;;;;;31.17;16.02;;;-2.20;99.90;;;;;;4124775;28;20318;-62
2021/12/24 11:04:41;;;;;;;30.47;16.03;;;-2.30;99.90;;;;;;4123988;28;20113;-61
2021/12/24 11:06:42;;;;;;;35.10;16.30;;;-2.30;99.90;;;;;;4125324;28;20264;-60
2021/12/24 11:08:44;;;;;;;30.50;15.83;;;-2.20;99.90;;;;;;4123669;28;20863;-61
2021/12/24 11:10:51;;;;;;;37.13;17.37;;;-2.20;99.90;;;;;;4124984;28;20268;-65
2021/12/24 11:12:59;;;;;;;35.30;18.15;;;-2.30;99.90;;;;;;4123607;28;20276;-62
2021/12/24 11:15:00;;;;;;;35.03;17.10;;;-2.30;99.90;;;;;;4125262;28;20081;-58
2021/12/24 11:17:01;;;;;;;34.33;17.23;;;-2.30;99.90;;;;;;4123721;28;20294;-55
2021/12/24 11:19:03;;;;;;;38.77;18.33;;;-2.30;99.90;;;;;;4124952;28;20288;-58
2021/12/24 11:21:09;;;;;;;38.00;18.43;;;-2.20;99.90;;;;;;4124127;28;20271;-56
2021/12/24 11:23:16;;;;;;;33.73;17.97;;;-2.20;99.90;;;;;;4125328;28;20750;-58
2021/12/24 11:25:20;;;;;;;38.13;16.87;;;-2.20;99.90;;;;;;4123948;28;20280;-56
2021/12/24 11:27:21;;;;;;;34.53;17.40;;;-2.20;99.90;;;;;;4124211;28;21038;-59
2021/12/24 11:29:22;;;;;;;37.70;17.47;;;-2.10;99.90;;;;;;4123996;28;21746;-57
2021/12/24 11:31:29;;;;;;;36.83;17.90;;;-2.10;99.90;;;;;;4123882;28;20276;-56
2021/12/24 11:33:33;;;;;;;36.77;17.87;;;-2.10;99.90;;;;;;4124784;28;20334;-58
2021/12/24 11:35:34;;;;;;;34.97;16.80;;;-2.10;99.90;;;;;;4123347;28;20810;-62
2021/12/24 11:37:36;;;;;;;34.50;18.10;;;-2.10;99.90;;;;;;4124949;28;20334;-57
2021/12/24 11:39:38;;;;;;;41.37;20.73;;;-2.00;99.90;;;;;;4123327;28;20331;-60
2021/12/24 11:41:41;;;;;;;44.53;18.93;;;-2.00;99.90;;;;;;4125037;28;20280;-57
2021/12/24 11:43:45;;;;;;;37.37;18.93;;;-1.90;99.90;;;;;;4123588;28;20261;-60
2021/12/24 11:45:47;;;;;;;36.93;17.80;;;-1.90;99.90;;;;;;4124509;28;20396;-60
2021/12/24 11:47:49;;;;;;;34.90;17.47;;;-1.90;99.90;;;;;;4123449;28;20322;-59
2021/12/24 11:49:50;;;;;;;36.17;17.57;;;-1.80;99.90;;;;;;4124713;28;20299;-56
2021/12/24 11:51:52;;;;;;;36.80;18.47;;;-1.80;99.90;;;;;;4123716;28;20264;-60
2021/12/24 11:53:59;;;;;;;38.07;19.87;;;-1.70;99.90;;;;;;4124693;28;20342;-59
2021/12/24 11:56:09;;;;;;;38.13;18.00;;;-1.60;99.90;;;;;;4124486;28;20318;-59
2021/12/24 11:58:23;;;;;;;37.50;20.67;;;-1.60;99.90;;;;;;4124927;28;20264;-58
2021/12/24 12:00:46;;;;;;;37.93;20.43;;;-1.50;99.90;;;;;;4122713;28;20323;-61
2021/12/24 12:02:47;;;;;;;39.47;20.20;;;-1.50;99.90;;;;;;4127894;28;20272;-59
2021/12/24 12:05:16;;;;;;;46.20;22.87;;;-1.50;99.90;;;;;;4125814;28;20370;-60
2021/12/24 12:07:18;;;;;;;37.47;18.20;;;-1.60;99.90;;;;;;4127688;28;20276;-61